Time;durP1;ratioP1;P1;durP2;ratioP2;P2;SDS_P1;SDS_P2;PMS_P1;PMS_P2;Temp;Humidity;BMP_temperature;BMP_pressure;BME280_temperature;BME280_humidity;BME280_pressure;Samples;Min_cycle;Max_cycle;Signal;HPM_P1;HPM_P2
2023/12/01 00:00:06;;;;;;;934.80;856.10;;;0.30;99.90;;;;;;5094199;28;20879;-75
2023/12/01 00:02:33;;;;;;;928.23;850.00;;;0.20;99.90;;;;;;5094047;28;20917;-75
2023/12/01 00:05:01;;;;;;;927.23;846.90;;;0.30;99.90;;;;;;5093870;28;20949;-75
2023/12/01 00:07:28;;;;;;;936.63;855.57;;;0.30;99.90;;;;;;5094330;28;20664;-76
2023/12/01 00:09:55;;;;;;;935.07;855.90;;;0.30;99.90;;;;;;5093907;28;20481;-75
2023/12/01 00:12:22;;;;;;;947.57;862.43;;;0.30;99.90;;;;;;5093542;28;20541;-75
2023/12/01 00:14:49;;;;;;;944.13;859.97;;;0.40;99.90;;;;;;5094104;28;20449;-75
2023/12/01 00:17:17;;;;;;;941.37;860.83;;;0.40;99.90;;;;;;5093820;28;21022;-75
2023/12/01 00:19:43;;;;;;;937.53;855.47;;;0.40;99.90;;;;;;5094017;28;20550;-75
2023/12/01 00:22:12;;;;;;;958.80;876.57;;;0.40;99.90;;;;;;5093592;28;20477;-75
2023/12/01 00:24:39;;;;;;;950.30;867.10;;;0.40;99.90;;;;;;5093810;28;20445;-75
2023/12/01 00:27:06;;;;;;;938.57;852.90;;;0.40;99.90;;;;;;5093405;28;20937;-75
2023/12/01 00:29:33;;;;;;;933.43;851.33;;;0.40;99.90;;;;;;5092664;28;20561;-75
2023/12/01 00:32:00;;;;;;;941.40;857.30;;;0.40;99.90;;;;;;5093486;28;20449;-75
2023/12/01 00:34:27;;;;;;;937.10;851.57;;;0.40;99.90;;;;;;5093432;28;20495;-75
2023/12/01 00:36:55;;;;;;;934.63;848.73;;;0.50;99.90;;;;;;5093455;28;20454;-75
2023/12/01 00:39:23;;;;;;;957.07;870.70;;;0.40;99.90;;;;;;5093271;28;20450;-75
2023/12/01 00:41:50;;;;;;;954.77;871.07;;;0.40;99.90;;;;;;5093524;28;20445;-75
2023/12/01 00:44:17;;;;;;;940.13;856.07;;;0.50;99.90;;;;;;5093576;28;20540;-75
2023/12/01 00:46:45;;;;;;;963.13;878.80;;;0.50;99.90;;;;;;5093211;28;20452;-75
2023/12/01 00:49:12;;;;;;;970.70;886.20;;;0.50;99.90;;;;;;5093003;28;20469;-75
2023/12/01 00:51:43;;;;;;;982.20;895.30;;;0.50;99.90;;;;;;5092997;28;20449;-75
2023/12/01 00:54:10;;;;;;;974.33;888.60;;;0.50;99.90;;;;;;5093041;28;20455;-75
2023/12/01 00:56:39;;;;;;;972.23;885.20;;;0.50;99.90;;;;;;5093048;28;20456;-75
2023/12/01 00:59:05;;;;;;;964.57;880.40;;;0.50;99.90;;;;;;5093318;28;20473;-75
2023/12/01 01:01:33;;;;;;;944.40;862.23;;;0.50;99.90;;;;;;5093226;28;20937;-76
2023/12/01 01:04:00;;;;;;;948.47;864.97;;;0.50;99.90;;;;;;5093228;28;20456;-75
2023/12/01 01:06:27;;;;;;;951.43;870.30;;;0.50;99.90;;;;;;5092673;28;20450;-75
2023/12/01 01:08:54;;;;;;;931.40;850.10;;;0.50;99.90;;;;;;5092918;28;20488;-75
2023/12/01 01:11:21;;;;;;;956.23;873.47;;;0.50;99.90;;;;;;5092519;28;20932;-75
2023/12/01 01:13:49;;;;;;;936.03;856.80;;;0.50;99.90;;;;;;5092892;28;20532;-75
2023/12/01 01:16:16;;;;;;;945.83;866.13;;;0.50;99.90;;;;;;5092653;28;20470;-75
2023/12/01 01:18:43;;;;;;;926.43;848.77;;;0.50;99.90;;;;;;5092526;28;20445;-75
2023/12/01 01:21:10;;;;;;;922.43;847.00;;;0.50;99.90;;;;;;5092408;28;20446;-75
2023/12/01 01:23:37;;;;;;;938.27;859.27;;;0.40;99.90;;;;;;5092422;28;20450;-75
2023/12/01 01:26:06;;;;;;;922.50;842.60;;;0.50;99.90;;;;;;5092640;28;20538;-75
2023/12/01 01:28:33;;;;;;;930.40;848.80;;;0.50;99.90;;;;;;5092318;28;20470;-75
2023/12/01 01:31:02;;;;;;;940.60;859.10;;;0.50;99.90;;;;;;5093554;28;20449;-75
2023/12/01 01:33:30;;;;;;;940.43;857.73;;;0.50;99.90;;;;;;5112348;28;20848;-75
2023/12/01 01:35:57;;;;;;;928.33;847.10;;;0.60;99.90;;;;;;5112497;28;20808;-75
2023/12/01 01:38:24;;;;;;;931.20;847.90;;;0.60;99.90;;;;;;5112752;28;20927;-75
2023/12/01 01:40:51;;;;;;;944.30;861.90;;;0.60;99.90;;;;;;5112469;28;20936;-75
2023/12/01 01:43:21;;;;;;;925.53;844.07;;;0.60;99.90;;;;;;5112575;28;20480;-75
2023/12/01 01:45:55;;;;;;;915.47;833.97;;;0.60;99.90;;;;;;5112355;28;20444;-75
2023/12/01 01:48:24;;;;;;;933.77;852.40;;;0.60;99.90;;;;;;5112566;28;20453;-75
2023/12/01 01:50:51;;;;;;;941.70;859.73;;;0.60;99.90;;;;;;5112354;28;20490;-75
2023/12/01 01:53:18;;;;;;;930.20;853.53;;;0.70;99.90;;;;;;5112394;28;20468;-75
2023/12/01 01:55:45;;;;;;;927.43;852.23;;;0.60;99.90;;;;;;5112148;28;20451;-75
2023/12/01 01:58:13;;;;;;;920.00;851.47;;;0.60;99.90;;;;;;5112166;28;20444;-75
2023/12/01 02:00:40;;;;;;;920.87;852.07;;;0.60;99.90;;;;;;5111799;28;20460;-75
2023/12/01 02:03:07;;;;;;;924.00;854.67;;;0.50;99.90;;;;;;5112055;28;20543;-75
2023/12/01 02:05:35;;;;;;;923.67;854.97;;;0.50;99.90;;;;;;5112268;28;20533;-75
2023/12/01 02:08:24;;;;;;;927.17;855.37;;;0.50;99.90;;;;;;5112241;28;20491;-75
2023/12/01 02:10:53;;;;;;;931.47;860.27;;;0.50;99.90;;;;;;5111970;28;20456;-75
2023/12/01 02:13:21;;;;;;;923.13;854.43;;;0.60;99.90;;;;;;5112293;28;20453;-75
2023/12/01 02:15:48;;;;;;;927.43;856.93;;;0.60;99.90;;;;;;5111864;28;20448;-75
2023/12/01 02:18:22;;;;;;;931.37;861.83;;;0.60;99.90;;;;;;5111884;28;20502;-75
2023/12/01 02:20:51;;;;;;;941.10;871.80;;;0.60;99.90;;;;;;5111990;28;20533;-75
2023/12/01 02:23:20;;;;;;;938.60;868.47;;;0.60;99.90;;;;;;5111892;28;20449;-75
2023/12/01 02:25:48;;;;;;;930.07;860.60;;;0.70;99.90;;;;;;5112134;28;20449;-75
2023/12/01 02:28:15;;;;;;;936.17;865.83;;;0.60;99.90;;;;;;5111860;28;20519;-75
2023/12/01 02:30:49;;;;;;;938.70;867.60;;;0.70;99.90;;;;;;5111701;28;20472;-75
2023/12/01 02:33:17;;;;;;;939.87;869.37;;;0.70;99.90;;;;;;5111716;28;20456;-75
2023/12/01 02:35:47;;;;;;;939.23;869.13;;;0.70;99.90;;;;;;5111658;28;20445;-75
2023/12/01 02:38:14;;;;;;;922.67;854.10;;;0.70;99.90;;;;;;5111661;28;20503;-75
2023/12/01 02:40:44;;;;;;;922.77;860.60;;;0.70;99.90;;;;;;5111495;28;20996;-75
2023/12/01 02:43:11;;;;;;;929.57;865.77;;;0.70;99.90;;;;;;5111664;28;20452;-75
2023/12/01 02:45:39;;;;;;;933.20;869.10;;;0.70;99.90;;;;;;5111557;28;20543;-75
2023/12/01 02:48:06;;;;;;;924.57;861.17;;;0.70;99.90;;;;;;5111516;28;20928;-75
2023/12/01 02:50:33;;;;;;;922.67;859.93;;;0.70;99.90;;;;;;5111216;28;20473;-75
2023/12/01 02:53:01;;;;;;;918.60;858.50;;;0.70;99.90;;;;;;5112990;28;20793;-75
2023/12/01 02:55:28;;;;;;;904.97;844.60;;;0.80;99.90;;;;;;5115840;28;20836;-75
2023/12/01 02:57:56;;;;;;;906.97;847.87;;;0.80;99.90;;;;;;5115842;28;20441;-75
2023/12/01 03:00:24;;;;;;;914.13;855.60;;;0.70;99.90;;;;;;5115538;28;20489;-75
2023/12/01 03:02:53;;;;;;;909.60;851.83;;;0.80;99.90;;;;;;5115634;28;20449;-75
2023/12/01 03:05:21;;;;;;;887.30;833.50;;;0.80;99.90;;;;;;5115453;28;20463;-75
2023/12/01 03:07:48;;;;;;;825.70;778.80;;;0.80;99.90;;;;;;5115849;28;20445;-75
2023/12/01 03:10:16;;;;;;;751.50;710.80;;;0.80;99.90;;;;;;5115304;28;20914;-75
2023/12/01 03:12:44;;;;;;;774.90;732.57;;;0.70;99.90;;;;;;5115457;28;20520;-75
2023/12/01 03:15:14;;;;;;;729.70;690.80;;;0.70;99.90;;;;;;5115299;28;20480;-75
2023/12/01 03:17:42;;;;;;;698.70;663.10;;;0.80;99.90;;;;;;5115495;28;20526;-75
2023/12/01 03:20:10;;;;;;;673.67;639.67;;;0.70;99.90;;;;;;5115233;28;20481;-75
2023/12/01 03:22:38;;;;;;;649.73;617.10;;;0.70;99.90;;;;;;5115246;28;20535;-75
2023/12/01 03:25:09;;;;;;;598.47;569.23;;;0.80;99.90;;;;;;5115420;28;20444;-75
2023/12/01 03:27:39;;;;;;;588.37;558.87;;;0.80;99.90;;;;;;5115349;28;20448;-75
2023/12/01 03:30:13;;;;;;;362.30;345.50;;;0.70;99.90;;;;;;5114989;28;20468;-74
2023/12/01 03:32:44;;;;;;;190.87;179.27;;;0.70;99.90;;;;;;5114994;28;20451;-75
2023/12/01 03:35:11;;;;;;;237.97;225.73;;;0.70;99.90;;;;;;5114938;28;20552;-75
2023/12/01 03:37:37;;;;;;;258.87;245.07;;;0.80;99.90;;;;;;5115199;28;20449;-75
2023/12/01 03:40:07;;;;;;;228.47;216.00;;;0.80;99.90;;;;;;5114864;28;20862;-75
2023/12/01 03:42:35;;;;;;;252.83;240.27;;;0.80;99.90;;;;;;5115003;28;20547;-75
2023/12/01 03:45:02;;;;;;;313.13;298.83;;;0.80;99.90;;;;;;5114660;28;20460;-75
2023/12/01 03:47:29;;;;;;;324.43;309.00;;;0.80;99.90;;;;;;5115039;28;20786;-75
2023/12/01 03:49:57;;;;;;;322.60;307.33;;;0.80;99.90;;;;;;5114621;28;20529;-74
2023/12/01 03:52:26;;;;;;;333.00;317.70;;;0.80;99.90;;;;;;5114402;28;20813;-75
2023/12/01 03:54:52;;;;;;;381.70;363.80;;;0.80;99.90;;;;;;5114362;28;20536;-75
2023/12/01 03:57:19;;;;;;;367.80;350.97;;;0.80;99.90;;;;;;5114384;28;20448;-75
2023/12/01 03:59:46;;;;;;;364.23;348.17;;;0.80;99.90;;;;;;5114756;28;20479;-75
2023/12/01 04:02:13;;;;;;;392.63;375.07;;;0.80;99.90;;;;;;5114650;28;20228;-75
2023/12/01 04:04:40;;;;;;;393.93;375.63;;;0.80;99.90;;;;;;5113165;28;21007;-75
2023/12/01 04:07:08;;;;;;;356.23;340.20;;;0.80;99.90;;;;;;5114399;28;21031;-75
2023/12/01 04:09:35;;;;;;;354.50;338.70;;;0.80;99.90;;;;;;5114407;28;20479;-75
2023/12/01 04:12:02;;;;;;;372.73;355.90;;;0.80;99.90;;;;;;5113929;28;20456;-75
2023/12/01 04:14:30;;;;;;;342.00;325.77;;;0.80;99.90;;;;;;5114289;28;20531;-75
2023/12/01 04:16:57;;;;;;;358.37;341.63;;;0.80;99.90;;;;;;5114344;28;20480;-75
2023/12/01 04:19:24;;;;;;;366.83;350.20;;;0.80;99.90;;;;;;5114175;28;20448;-75
2023/12/01 04:21:52;;;;;;;323.30;307.80;;;0.80;99.90;;;;;;5113940;28;20940;-75
2023/12/01 04:24:21;;;;;;;304.67;288.57;;;0.90;99.90;;;;;;5114153;28;20861;-75
2023/12/01 04:26:49;;;;;;;356.27;339.50;;;0.90;99.90;;;;;;5114061;28;20517;-75
2023/12/01 04:29:16;;;;;;;424.27;403.60;;;0.80;99.90;;;;;;5114126;28;20519;-74
2023/12/01 04:31:43;;;;;;;391.97;373.80;;;0.80;99.90;;;;;;5113900;28;20482;-75
2023/12/01 04:34:10;;;;;;;417.53;397.93;;;0.90;99.90;;;;;;5113995;28;20520;-75
2023/12/01 04:36:37;;;;;;;414.87;395.13;;;0.90;99.90;;;;;;5113763;28;20457;-75
2023/12/01 04:39:04;;;;;;;492.50;470.83;;;0.90;99.90;;;;;;5113642;28;20580;-75
2023/12/01 04:41:33;;;;;;;426.03;404.93;;;0.90;99.90;;;;;;5113687;28;20445;-75
2023/12/01 04:43:59;;;;;;;286.00;270.40;;;0.90;99.90;;;;;;5113815;28;20539;-75
2023/12/01 04:46:26;;;;;;;231.70;218.17;;;0.90;99.90;;;;;;5113870;28;20452;-75
2023/12/01 04:48:53;;;;;;;196.90;184.03;;;0.90;99.90;;;;;;5113803;28;20449;-75
2023/12/01 04:51:20;;;;;;;210.93;197.97;;;0.90;99.90;;;;;;5113237;28;20469;-75
2023/12/01 04:53:48;;;;;;;239.90;226.53;;;0.90;99.90;;;;;;5113843;28;20538;-75
2023/12/01 04:56:15;;;;;;;306.50;290.03;;;0.90;99.90;;;;;;5113648;28;20476;-74
2023/12/01 04:58:43;;;;;;;350.43;332.13;;;0.90;99.90;;;;;;5113515;28;20550;-75
2023/12/01 05:01:11;;;;;;;371.00;352.90;;;0.90;99.90;;;;;;5113237;28;20477;-75
2023/12/01 05:03:38;;;;;;;409.03;388.97;;;1.00;99.90;;;;;;5113447;28;20449;-75
2023/12/01 05:06:06;;;;;;;415.27;395.63;;;0.90;99.90;;;;;;5113450;28;20881;-75
2023/12/01 05:08:33;;;;;;;419.87;398.37;;;1.00;99.90;;;;;;5113338;28;20532;-74
2023/12/01 05:11:00;;;;;;;425.80;404.87;;;1.00;99.90;;;;;;5113459;28;20502;-75
2023/12/01 05:13:27;;;;;;;467.80;443.97;;;0.90;99.90;;;;;;5113202;28;20472;-75
2023/12/01 05:15:55;;;;;;;486.53;461.33;;;0.90;99.90;;;;;;5112816;28;20480;-75
2023/12/01 05:18:22;;;;;;;532.83;506.43;;;1.00;99.90;;;;;;5112982;28;20522;-74
2023/12/01 05:20:49;;;;;;;503.27;479.47;;;0.90;99.90;;;;;;5112622;28;20445;-75
2023/12/01 05:23:16;;;;;;;483.13;458.43;;;0.90;99.90;;;;;;5113237;28;20449;-75
2023/12/01 05:25:44;;;;;;;463.33;439.53;;;0.90;99.90;;;;;;5112924;28;20527;-74
2023/12/01 05:28:12;;;;;;;424.13;401.93;;;0.90;99.90;;;;;;5112360;28;20819;-75
2023/12/01 05:30:41;;;;;;;405.87;384.80;;;0.90;99.90;;;;;;5113103;28;20544;-75
2023/12/01 05:33:09;;;;;;;398.10;378.40;;;0.90;99.90;;;;;;5113765;28;20462;-72
2023/12/01 05:35:37;;;;;;;399.40;379.20;;;0.90;99.90;;;;;;5114932;28;20448;-72
2023/12/01 05:38:05;;;;;;;379.30;360.00;;;1.10;99.90;;;;;;5114816;28;20450;-72
2023/12/01 05:40:35;;;;;;;354.03;337.13;;;0.90;99.90;;;;;;5115104;28;20477;-72
2023/12/01 05:43:03;;;;;;;336.70;320.00;;;0.90;99.90;;;;;;5113669;28;20536;-72
2023/12/01 05:45:32;;;;;;;261.40;247.83;;;1.00;99.90;;;;;;5114683;28;20199;-72
2023/12/01 05:48:00;;;;;;;253.43;240.17;;;0.80;99.90;;;;;;5114960;28;20483;-72
2023/12/01 05:50:30;;;;;;;162.27;152.80;;;0.90;99.90;;;;;;5114519;28;20519;-72
2023/12/01 05:52:58;;;;;;;126.87;118.87;;;0.90;99.90;;;;;;5114300;28;20466;-72
2023/12/01 05:55:26;;;;;;;117.23;109.83;;;0.90;99.90;;;;;;5114801;28;20444;-72
2023/12/01 05:57:54;;;;;;;92.40;85.43;;;0.90;99.90;;;;;;5114758;28;20451;-72
2023/12/01 06:00:22;;;;;;;102.67;95.40;;;0.80;99.90;;;;;;5114451;28;20887;-72
2023/12/01 06:02:50;;;;;;;120.77;112.87;;;0.90;99.90;;;;;;5114004;28;20488;-72
2023/12/01 06:05:18;;;;;;;148.47;139.83;;;0.80;99.90;;;;;;5114612;28;20452;-72
2023/12/01 06:07:50;;;;;;;173.97;164.63;;;0.80;99.90;;;;;;5114433;28;20815;-72
2023/12/01 06:10:18;;;;;;;191.73;181.70;;;0.80;99.90;;;;;;5114503;28;20464;-72
2023/12/01 06:12:44;;;;;;;177.60;167.50;;;0.80;99.90;;;;;;5113500;28;20444;-72
2023/12/01 06:15:13;;;;;;;167.50;158.40;;;0.80;99.90;;;;;;5114510;28;20449;-72
2023/12/01 06:17:41;;;;;;;144.57;136.70;;;0.70;99.90;;;;;;5114462;28;20808;-72
2023/12/01 06:20:16;;;;;;;166.63;157.33;;;0.70;99.90;;;;;;5114107;28;20451;-72
2023/12/01 06:22:46;;;;;;;212.60;202.70;;;0.70;99.90;;;;;;5113121;28;20428;-72
2023/12/01 06:25:13;;;;;;;263.63;251.83;;;0.70;99.90;;;;;;5114112;28;20803;-72
2023/12/01 06:27:41;;;;;;;308.53;293.83;;;0.60;99.90;;;;;;5113613;28;20445;-72
2023/12/01 06:30:11;;;;;;;311.93;298.93;;;0.70;99.90;;;;;;5114201;28;20476;-72
2023/12/01 06:32:39;;;;;;;324.10;309.60;;;0.60;99.90;;;;;;5113005;28;20455;-72
2023/12/01 06:35:08;;;;;;;332.77;318.80;;;0.70;99.90;;;;;;5114261;28;20783;-72
2023/12/01 06:37:35;;;;;;;349.23;335.03;;;0.60;99.90;;;;;;5114207;28;20449;-72
2023/12/01 06:40:11;;;;;;;366.13;351.03;;;0.60;99.90;;;;;;5114206;28;20442;-72
2023/12/01 06:42:39;;;;;;;372.13;356.60;;;0.60;99.90;;;;;;5112519;28;20476;-72
2023/12/01 06:45:07;;;;;;;370.27;355.07;;;0.60;99.90;;;;;;5113859;28;20456;-72
2023/12/01 06:47:34;;;;;;;373.17;357.80;;;0.60;99.90;;;;;;5114113;28;20502;-72
2023/12/01 06:50:01;;;;;;;362.10;346.77;;;0.60;99.90;;;;;;5113944;28;20469;-72
2023/12/01 06:52:28;;;;;;;338.97;325.07;;;0.60;99.90;;;;;;5112868;28;20535;-72
2023/12/01 06:54:54;;;;;;;347.37;332.17;;;0.60;99.90;;;;;;5114096;28;20532;-72
2023/12/01 06:57:23;;;;;;;373.13;356.87;;;0.60;99.90;;;;;;5113733;28;20556;-72
2023/12/01 06:59:49;;;;;;;379.43;362.97;;;0.60;99.90;;;;;;5113974;28;20481;-72
2023/12/01 07:02:17;;;;;;;352.87;337.43;;;0.50;99.90;;;;;;5113056;28;20445;-72
2023/12/01 07:04:44;;;;;;;335.23;321.00;;;0.60;99.90;;;;;;5113944;28;20453;-72
2023/12/01 07:07:12;;;;;;;322.67;309.17;;;0.60;99.90;;;;;;5113658;28;20455;-72
2023/12/01 07:09:39;;;;;;;298.27;285.17;;;0.60;99.90;;;;;;5113968;28;20451;-72
2023/12/01 07:12:07;;;;;;;294.63;282.00;;;0.60;99.90;;;;;;5113172;28;20472;-72
2023/12/01 07:14:36;;;;;;;290.33;277.53;;;0.60;99.90;;;;;;5113470;28;20485;-72
2023/12/01 07:17:05;;;;;;;298.03;285.53;;;0.70;99.90;;;;;;5113499;28;20981;-72
2023/12/01 07:19:32;;;;;;;300.30;287.57;;;0.70;99.90;;;;;;5113539;28;20547;-72
2023/12/01 07:21:59;;;;;;;309.87;296.73;;;0.70;99.90;;;;;;5112928;28;20446;-72
2023/12/01 07:24:26;;;;;;;285.93;273.10;;;0.70;99.90;;;;;;5113286;28;20478;-72
2023/12/01 07:26:52;;;;;;;302.73;288.67;;;0.70;99.90;;;;;;5113747;28;20445;-72
2023/12/01 07:29:19;;;;;;;344.40;330.30;;;0.70;99.90;;;;;;5113784;28;20445;-72
2023/12/01 07:31:47;;;;;;;367.60;351.33;;;0.70;99.90;;;;;;5112513;28;20474;-72
2023/12/01 07:34:15;;;;;;;385.97;368.70;;;0.70;99.90;;;;;;5112860;28;20505;-72
2023/12/01 07:36:42;;;;;;;402.90;386.20;;;0.80;99.90;;;;;;5113362;28;20935;-72
2023/12/01 07:39:09;;;;;;;427.17;408.07;;;0.80;99.90;;;;;;5114572;28;20453;-72
2023/12/01 07:41:35;;;;;;;382.20;365.80;;;0.90;99.90;;;;;;5116989;28;20494;-72
2023/12/01 07:44:03;;;;;;;317.80;303.90;;;0.80;99.90;;;;;;5116464;28;20456;-72
2023/12/01 07:46:32;;;;;;;347.00;332.23;;;0.90;99.90;;;;;;5117003;28;20499;-72
2023/12/01 07:49:00;;;;;;;359.13;343.57;;;0.90;99.90;;;;;;5117272;28;20784;-72
2023/12/01 07:51:27;;;;;;;357.67;342.47;;;0.90;99.90;;;;;;5116671;28;20477;-72
2023/12/01 07:53:54;;;;;;;378.40;361.90;;;1.00;99.90;;;;;;5116397;28;20446;-72
2023/12/01 07:56:22;;;;;;;369.17;353.63;;;1.00;99.90;;;;;;5117080;28;20552;-72
2023/12/01 07:58:49;;;;;;;356.00;341.20;;;1.00;99.90;;;;;;5117027;28;20501;-72
2023/12/01 08:01:16;;;;;;;350.40;335.90;;;1.00;99.90;;;;;;5116848;28;20447;-72
2023/12/01 08:03:44;;;;;;;359.50;344.20;;;1.10;99.90;;;;;;5115928;28;20449;-72
2023/12/01 08:06:13;;;;;;;374.67;358.70;;;1.10;99.90;;;;;;5116749;28;20449;-72
2023/12/01 08:08:40;;;;;;;378.23;361.67;;;1.30;99.90;;;;;;5116566;28;20456;-72
2023/12/01 08:11:25;;;;;;;363.87;347.87;;;1.20;99.90;;;;;;5116440;28;20562;-72
2023/12/01 08:13:53;;;;;;;281.80;270.10;;;1.20;99.90;;;;;;5115573;28;20572;-72
2023/12/01 08:16:20;;;;;;;278.17;266.53;;;1.20;99.90;;;;;;5117307;28;20444;-72
2023/12/01 08:18:47;;;;;;;310.97;297.67;;;1.30;99.90;;;;;;5116704;28;20819;-73
2023/12/01 08:21:16;;;;;;;314.53;301.03;;;1.20;99.90;;;;;;5116517;28;20437;-73
2023/12/01 08:23:43;;;;;;;311.03;297.37;;;1.30;99.90;;;;;;5115660;28;20453;-73
2023/12/01 08:26:11;;;;;;;209.30;198.67;;;1.30;99.90;;;;;;5116267;28;20543;-73
2023/12/01 08:28:38;;;;;;;168.27;159.27;;;1.30;99.90;;;;;;5116234;28;20448;-73
2023/12/01 08:31:05;;;;;;;176.90;167.53;;;1.30;99.90;;;;;;5116381;28;20488;-73
2023/12/01 08:33:35;;;;;;;148.47;141.13;;;1.40;99.90;;;;;;5115000;28;20462;-73
2023/12/01 08:36:02;;;;;;;101.93;95.93;;;1.40;99.90;;;;;;5115787;28;20956;-73
2023/12/01 08:38:30;;;;;;;107.10;100.17;;;1.40;99.90;;;;;;5113683;28;20492;-72
2023/12/01 08:40:57;;;;;;;92.22;86.22;;;1.40;99.90;;;;;;5113180;28;20443;-73
2023/12/01 08:43:24;;;;;;;63.97;58.92;;;1.50;99.90;;;;;;5114861;28;20450;-73
2023/12/01 08:45:51;;;;;;;48.55;44.05;;;1.50;99.90;;;;;;5115518;28;20443;-73
2023/12/01 08:48:18;;;;;;;33.73;29.27;;;1.40;99.90;;;;;;5115878;28;20650;-73
2023/12/01 08:50:46;;;;;;;32.00;26.80;;;1.50;99.90;;;;;;5115358;28;20586;-72
2023/12/01 08:53:13;;;;;;;31.87;26.03;;;1.50;99.90;;;;;;5115231;28;20450;-72
2023/12/01 08:55:41;;;;;;;32.13;24.30;;;1.50;99.90;;;;;;5116004;28;20453;-73
2023/12/01 08:58:08;;;;;;;30.40;25.37;;;1.50;99.90;;;;;;5115658;28;20952;-73
2023/12/01 09:00:35;;;;;;;33.33;27.40;;;1.50;99.90;;;;;;5115579;28;20978;-73
2023/12/01 09:03:02;;;;;;;33.50;26.20;;;1.50;99.90;;;;;;5114958;28;20883;-73
2023/12/01 09:05:29;;;;;;;33.03;26.73;;;1.50;99.90;;;;;;5115458;28;20449;-73
2023/12/01 09:07:56;;;;;;;42.00;32.97;;;1.50;99.90;;;;;;5115719;28;20452;-73
2023/12/01 09:10:23;;;;;;;33.97;30.60;;;1.50;99.90;;;;;;5115389;28;20456;-73
2023/12/01 09:12:52;;;;;;;26.77;22.40;;;1.50;99.90;;;;;;5114400;28;20449;-73
2023/12/01 09:15:19;;;;;;;25.20;17.00;;;1.50;99.90;;;;;;5115580;28;20453;-73
2023/12/01 09:17:46;;;;;;;29.57;18.60;;;1.40;99.90;;;;;;5115534;28;20449;-73
2023/12/01 09:20:13;;;;;;;24.20;18.00;;;1.40;99.90;;;;;;5115506;28;20445;-73
2023/12/01 09:22:40;;;;;;;28.10;16.77;;;1.40;99.90;;;;;;5114197;28;20443;-73
2023/12/01 09:25:08;;;;;;;24.83;16.30;;;1.40;99.90;;;;;;5115437;28;20449;-73
2023/12/01 09:27:37;;;;;;;28.23;17.93;;;1.40;99.90;;;;;;5115063;28;20527;-74
2023/12/01 09:30:10;;;;;;;27.30;19.57;;;1.60;99.90;;;;;;5115346;28;20442;-74
2023/12/01 09:32:37;;;;;;;25.70;20.07;;;1.40;99.90;;;;;;5114441;28;20543;-73
2023/12/01 09:35:04;;;;;;;24.73;18.13;;;1.50;99.90;;;;;;5114933;28;20450;-74
2023/12/01 09:37:31;;;;;;;25.83;17.37;;;1.50;99.90;;;;;;5115175;28;20447;-74
2023/12/01 09:39:58;;;;;;;27.60;17.87;;;1.40;99.90;;;;;;5114860;28;20455;-74
2023/12/01 09:42:26;;;;;;;28.00;20.47;;;1.60;99.90;;;;;;5114012;28;20501;-74
2023/12/01 09:44:55;;;;;;;25.70;18.03;;;1.60;99.90;;;;;;5114731;28;20449;-74
2023/12/01 09:47:30;;;;;;;23.70;18.90;;;1.70;99.90;;;;;;5114760;28;20446;-77
2023/12/01 09:49:57;;;;;;;22.47;16.23;;;1.70;99.90;;;;;;5112766;28;20532;-77
2023/12/01 09:52:24;;;;;;;27.20;13.40;;;1.60;99.90;;;;;;5112595;28;20476;-77
2023/12/01 09:54:51;;;;;;;22.50;15.67;;;1.60;99.90;;;;;;5112960;28;20521;-77
2023/12/01 09:57:19;;;;;;;24.80;16.47;;;1.60;99.90;;;;;;5112983;28;20449;-77
2023/12/01 09:59:49;;;;;;;25.37;15.80;;;1.60;99.90;;;;;;5112501;28;20476;-77
2023/12/01 10:02:16;;;;;;;23.30;14.67;;;1.60;99.90;;;;;;5111748;28;20447;-77
2023/12/01 10:04:45;;;;;;;23.33;12.93;;;1.60;99.90;;;;;;5112603;28;20480;-77
2023/12/01 10:07:12;;;;;;;22.20;14.10;;;1.60;99.90;;;;;;5112479;28;20951;-78
2023/12/01 10:09:39;;;;;;;23.20;13.70;;;1.70;99.90;;;;;;5112488;28;20535;-77
2023/12/01 10:12:08;;;;;;;21.67;14.33;;;1.70;99.90;;;;;;5112166;28;20479;-77
2023/12/01 10:14:35;;;;;;;29.60;16.93;;;1.70;99.90;;;;;;5112405;28;20462;-77
2023/12/01 10:17:04;;;;;;;31.70;16.73;;;1.70;99.90;;;;;;5112569;28;20548;-77
2023/12/01 10:19:33;;;;;;;38.20;21.80;;;1.70;99.90;;;;;;5112321;28;20454;-77
2023/12/01 10:22:02;;;;;;;31.17;20.60;;;1.60;99.90;;;;;;5111929;28;20446;-77
2023/12/01 10:24:30;;;;;;;26.30;19.10;;;1.40;99.90;;;;;;5112304;28;20451;-77
2023/12/01 10:27:01;;;;;;;29.03;20.60;;;1.40;99.90;;;;;;5111993;28;20969;-77
2023/12/01 10:29:30;;;;;;;16.13;11.93;;;1.40;99.90;;;;;;5112387;28;20810;-77
2023/12/01 10:31:58;;;;;;;28.03;19.80;;;1.40;99.90;;;;;;5111873;28;20487;-77
2023/12/01 10:34:25;;;;;;;27.80;18.20;;;1.40;99.90;;;;;;5112176;28;20559;-77
2023/12/01 10:36:53;;;;;;;33.67;19.67;;;1.40;99.90;;;;;;5112089;28;20852;-77
2023/12/01 10:39:27;;;;;;;26.17;16.90;;;1.50;99.90;;;;;;5112054;28;20450;-77
2023/12/01 10:41:55;;;;;;;26.43;17.53;;;1.40;99.90;;;;;;5111965;28;20491;-77
2023/12/01 10:44:24;;;;;;;26.77;16.80;;;1.50;99.90;;;;;;5112106;28;20511;-77
2023/12/01 10:46:52;;;;;;;26.97;16.90;;;1.50;99.90;;;;;;5112171;28;20501;-77
2023/12/01 10:49:20;;;;;;;29.33;18.10;;;1.60;99.90;;;;;;5111866;28;20448;-77
2023/12/01 10:51:52;;;;;;;35.70;22.20;;;1.60;99.90;;;;;;5111638;28;20484;-77
2023/12/01 10:54:25;;;;;;;26.23;18.73;;;1.70;99.90;;;;;;5112270;28;20447;-77
2023/12/01 10:57:00;;;;;;;32.23;17.73;;;1.80;99.90;;;;;;5111913;28;20457;-77
2023/12/01 10:59:28;;;;;;;26.53;16.67;;;1.80;99.90;;;;;;5112049;28;20574;-77
2023/12/01 11:01:59;;;;;;;28.93;16.87;;;1.70;99.90;;;;;;5111589;28;20453;-77
2023/12/01 11:04:26;;;;;;;28.63;18.00;;;1.70;99.90;;;;;;5111683;28;20540;-77
2023/12/01 11:07:23;;;;;;;27.30;17.57;;;1.70;99.90;;;;;;5111709;28;20455;-77
2023/12/01 11:10:02;;;;;;;25.00;17.17;;;1.70;99.90;;;;;;5112028;28;20449;-77
2023/12/01 11:12:46;;;;;;;27.53;14.77;;;1.70;99.90;;;;;;5111618;28;20590;-77
2023/12/01 11:15:17;;;;;;;21.17;14.43;;;1.60;99.90;;;;;;5115155;28;20463;-77
2023/12/01 11:17:44;;;;;;;25.50;12.83;;;1.70;99.90;;;;;;5116099;28;20447;-77
2023/12/01 11:20:32;;;;;;;16.13;11.80;;;1.50;98.60;;;;;;5115480;28;20451;-77
2023/12/01 11:23:22;;;;;;;17.33;13.20;;;1.50;99.80;;;;;;5104369;28;20440;-77
2023/12/01 11:25:55;;;;;;;20.97;15.93;;;1.40;99.80;;;;;;5115695;28;20441;-77
2023/12/01 11:28:27;;;;;;;29.43;17.37;;;1.60;99.90;;;;;;5115705;28;20529;-77
2023/12/01 11:31:07;;;;;;;15.03;10.37;;;1.70;99.90;;;;;;5115363;28;20446;-77
2023/12/01 11:33:37;;;;;;;20.97;13.43;;;1.70;98.30;;;;;;5115236;28;20542;-77
2023/12/01 11:36:24;;;;;;;20.20;13.50;;;1.70;98.70;;;;;;5115543;28;20891;-77
2023/12/01 11:39:14;;;;;;;15.93;11.67;;;1.70;99.20;;;;;;5115337;28;21019;-77
2023/12/01 11:42:00;;;;;;;17.93;12.00;;;1.70;99.50;;;;;;5115112;28;20933;-77
2023/12/01 11:44:32;;;;;;;21.23;14.30;;;1.70;99.00;;;;;;5099133;28;20796;-77
2023/12/01 11:47:00;;;;;;;20.70;12.60;;;1.70;98.80;;;;;;5115152;28;20493;-77
2023/12/01 11:49:30;;;;;;;14.53;9.40;;;1.60;97.20;;;;;;5115316;28;20818;-77
2023/12/01 11:51:57;;;;;;;19.37;12.17;;;1.50;96.40;;;;;;5114821;28;20474;-77
2023/12/01 11:54:24;;;;;;;16.77;10.50;;;1.60;98.10;;;;;;5115000;28;20559;-77
2023/12/01 11:56:53;;;;;;;8.97;7.20;;;1.60;96.40;;;;;;5115164;28;20446;-77
2023/12/01 11:59:20;;;;;;;18.90;10.20;;;1.50;94.80;;;;;;5115224;28;20460;-77
2023/12/01 12:01:48;;;;;;;21.63;14.10;;;1.40;95.40;;;;;;5114825;28;20452;-77
2023/12/01 12:04:16;;;;;;;21.83;11.80;;;1.40;98.00;;;;;;5114936;28;20494;-77
2023/12/01 12:06:43;;;;;;;26.00;13.27;;;1.50;97.40;;;;;;5114864;28;20473;-77
2023/12/01 12:09:10;;;;;;;16.83;10.80;;;1.50;97.70;;;;;;5114666;28;20452;-77
2023/12/01 12:11:39;;;;;;;15.80;9.48;;;1.40;97.40;;;;;;5113820;28;20449;-77
2023/12/01 12:14:07;;;;;;;12.87;8.90;;;1.40;94.80;;;;;;5114624;28;20290;-77
2023/12/01 12:16:35;;;;;;;17.70;11.57;;;1.40;95.10;;;;;;5113691;28;20524;-77
2023/12/01 12:19:03;;;;;;;17.17;10.97;;;1.30;94.80;;;;;;5113746;28;20451;-76
2023/12/01 12:21:29;;;;;;;18.77;11.37;;;1.30;94.70;;;;;;5114242;28;20811;-76
2023/12/01 12:23:57;;;;;;;18.10;11.77;;;1.40;95.70;;;;;;5113669;28;20447;-77
2023/12/01 12:26:25;;;;;;;19.27;12.23;;;1.40;96.70;;;;;;5111093;28;20199;-77
2023/12/01 12:28:55;;;;;;;18.00;11.93;;;1.40;94.90;;;;;;5114216;28;20463;-77